Time;durP1;ratioP1;P1;durP2;ratioP2;P2;SDS_P1;SDS_P2;PMS_P1;PMS_P2;Temp;Humidity;BMP_temperature;BMP_pressure;BME280_temperature;BME280_humidity;BME280_pressure;Samples;Min_cycle;Max_cycle;Signal;HPM_P1;HPM_P2
2022/03/03 00:00:26;;;;;;;54.60;35.60;;;;;;;;;;5015556;28;20041;-80
2022/03/03 00:02:52;;;;;;;57.58;36.05;;;2.90;99.90;;;;;;5033234;28;20473;-79
2022/03/03 00:05:18;;;;;;;48.85;34.00;;;3.10;99.90;;;;;;5033691;28;20116;-81
2022/03/03 00:07:44;;;;;;;49.60;34.30;;;;;;;;;;5015860;28;20063;-79
2022/03/03 00:10:10;;;;;;;52.85;34.53;;;2.80;99.90;;;;;;5015531;28;20041;-80
2022/03/03 00:12:37;;;;;;;49.85;34.25;;;;;;;;;;5033339;28;20124;-80
2022/03/03 00:15:04;;;;;;;51.63;34.97;;;2.80;99.90;;;;;;4999603;28;20045;-81
2022/03/03 00:17:30;;;;;;;50.70;34.47;;;2.80;99.90;;;;;;5016023;28;20103;-81
2022/03/03 00:19:55;;;;;;;49.78;34.03;;;2.90;99.90;;;;;;5015827;28;20058;-81
2022/03/03 00:22:21;;;;;;;54.20;34.35;;;3.00;99.90;;;;;;5016078;28;20081;-80
2022/03/03 00:24:48;;;;;;;51.97;34.40;;;2.70;99.90;;;;;;5015766;28;20088;-79
2022/03/03 00:27:14;;;;;;;49.63;33.08;;;2.80;99.90;;;;;;5032820;28;20045;-80
2022/03/03 00:29:40;;;;;;;49.90;33.47;;;;;;;;;;5033049;28;20048;-80
2022/03/03 00:32:07;;;;;;;54.83;34.60;;;;;;;;;;5033127;28;20044;-80
2022/03/03 00:34:33;;;;;;;49.65;33.83;;;2.80;99.90;;;;;;5015250;28;20049;-80
2022/03/03 00:36:59;;;;;;;50.03;33.28;;;2.70;99.90;;;;;;5015534;28;20065;-81
2022/03/03 00:39:25;;;;;;;49.65;32.22;;;;;;;;;;5015631;28;20041;-81
2022/03/03 00:41:51;;;;;;;52.25;32.70;;;;;;;;;;5032961;28;20037;-80
2022/03/03 00:44:16;;;;;;;49.80;32.65;;;2.80;99.90;;;;;;5015011;28;20377;-80
2022/03/03 00:46:42;;;;;;;51.50;33.05;;;2.50;99.90;;;;;;5014391;28;20056;-79
2022/03/03 00:49:08;;;;;;;45.85;30.10;;;;;;;;;;5032813;28;20048;-80
2022/03/03 00:51:34;;;;;;;45.20;31.13;;;2.80;99.90;;;;;;5032828;28;20043;-80
2022/03/03 00:54:00;;;;;;;49.85;31.90;;;3.20;99.90;;;;;;5032607;28;20037;-79
2022/03/03 00:56:26;;;;;;;46.78;31.98;;;2.90;99.90;;;;;;5015317;28;20155;-80
2022/03/03 00:58:52;;;;;;;45.55;31.52;;;;;;;;;;4998371;28;20484;-79
2022/03/03 01:01:18;;;;;;;53.72;32.03;;;2.70;99.90;;;;;;5032745;28;20038;-80
2022/03/03 01:03:44;;;;;;;47.42;31.33;;;2.90;99.90;;;;;;5032683;28;20103;-79
2022/03/03 01:06:10;;;;;;;48.83;31.00;;;2.50;99.90;;;;;;5032550;28;20050;-80
2022/03/03 01:08:36;;;;;;;47.08;32.70;;;2.70;99.90;;;;;;5014787;28;20038;-79
2022/03/03 01:11:04;;;;;;;50.60;32.40;;;2.60;99.90;;;;;;5032407;28;20045;-80
2022/03/03 01:13:30;;;;;;;49.15;32.35;;;;;;;;;;5014958;28;20045;-80
2022/03/03 01:15:56;;;;;;;46.45;33.20;;;;;;;;;;5014852;28;20507;-80
2022/03/03 01:18:22;;;;;;;48.00;32.38;;;2.30;99.90;;;;;;4998456;28;20053;-80
2022/03/03 01:20:49;;;;;;;46.47;30.35;;;2.40;99.90;;;;;;5014657;28;20045;-80
2022/03/03 01:23:15;;;;;;;50.72;32.17;;;2.70;99.90;;;;;;5032486;28;20415;-79
2022/03/03 01:25:40;;;;;;;50.45;31.92;;;2.10;99.90;;;;;;5032125;28;20106;-79
2022/03/03 01:28:06;;;;;;;45.63;30.90;;;2.40;99.90;;;;;;5031964;28;20070;-79
2022/03/03 01:30:32;;;;;;;48.17;31.65;;;2.10;99.90;;;;;;5014438;28;20151;-79
2022/03/03 01:32:58;;;;;;;48.60;30.35;;;;;;;;;;5032115;28;20034;-79
2022/03/03 01:35:24;;;;;;;46.97;30.63;;;;;;;;;;5031873;28;20575;-79
2022/03/03 01:37:50;;;;;;;44.78;29.17;;;1.80;99.90;;;;;;5014233;28;20052;-79
2022/03/03 01:40:16;;;;;;;45.55;31.50;;;3.00;99.90;;;;;;5031967;28;20033;-79
2022/03/03 01:42:42;;;;;;;49.15;29.10;;;;;;;;;;5014332;28;20037;-79
2022/03/03 01:45:09;;;;;;;44.55;31.27;;;1.60;99.90;;;;;;5014361;28;20084;-79
2022/03/03 01:47:35;;;;;;;46.65;29.23;;;2.20;99.90;;;;;;5013972;28;20053;-78
2022/03/03 01:50:01;;;;;;;46.80;30.58;;;2.40;99.90;;;;;;5013929;28;20045;-78
2022/03/03 01:52:27;;;;;;;45.22;30.30;;;2.20;99.90;;;;;;5013937;28;20064;-78
2022/03/03 01:54:53;;;;;;;46.80;31.08;;;2.10;99.90;;;;;;5031441;28;20038;-78
2022/03/03 01:57:20;;;;;;;45.47;28.88;;;2.00;99.90;;;;;;5016342;28;20040;-78
2022/03/03 01:59:47;;;;;;;42.60;28.75;;;2.10;99.90;;;;;;5018538;28;20045;-77
2022/03/03 02:02:13;;;;;;;44.13;27.92;;;2.10;99.90;;;;;;5017411;28;20342;-78
2022/03/03 02:04:39;;;;;;;45.10;29.65;;;2.00;99.90;;;;;;5035130;28;20496;-78
2022/03/03 02:07:09;;;;;;;42.00;28.50;;;2.00;99.90;;;;;;5031520;28;20044;-78
2022/03/03 02:09:35;;;;;;;43.85;27.65;;;2.40;99.90;;;;;;5054915;28;20045;-78
2022/03/03 02:12:02;;;;;;;44.80;29.70;;;2.10;99.90;;;;;;5020702;28;20041;-79
2022/03/03 02:14:28;;;;;;;40.58;27.17;;;;;;;;;;5036234;28;20053;-78
2022/03/03 02:16:53;;;;;;;40.42;27.58;;;2.30;99.90;;;;;;5036685;28;20045;-78
2022/03/03 02:19:20;;;;;;;42.80;27.10;;;2.00;99.90;;;;;;5036640;28;20060;-79
2022/03/03 02:21:51;;;;;;;42.83;28.42;;;2.30;99.90;;;;;;5037154;28;20391;-78
2022/03/03 02:24:18;;;;;;;43.70;29.10;;;2.00;99.90;;;;;;5037008;28;20055;-78
2022/03/03 02:26:44;;;;;;;48.40;26.15;;;;;;;;;;5036440;28;20525;-79
2022/03/03 02:29:10;;;;;;;42.97;30.10;;;;;;;;;;5020350;28;20045;-79
2022/03/03 02:31:36;;;;;;;42.80;27.42;;;;;;;;;;5054354;28;20048;-78
2022/03/03 02:34:02;;;;;;;42.83;27.50;;;1.50;99.90;;;;;;5036779;28;20091;-79
2022/03/03 02:36:29;;;;;;;45.20;28.05;;;2.00;99.90;;;;;;5054607;28;20041;-78
2022/03/03 02:38:57;;;;;;;43.38;26.73;;;1.70;99.90;;;;;;5054713;28;20120;-79
2022/03/03 02:41:24;;;;;;;43.85;29.88;;;1.90;99.90;;;;;;5054340;28;20090;-79
2022/03/03 02:43:50;;;;;;;43.00;29.20;;;1.80;99.90;;;;;;5054459;28;20053;-79
2022/03/03 02:46:16;;;;;;;43.70;28.70;;;1.80;99.90;;;;;;5020203;28;20045;-79
2022/03/03 02:48:45;;;;;;;48.53;26.88;;;1.80;99.90;;;;;;5054601;28;20045;-79
2022/03/03 02:51:12;;;;;;;45.15;29.17;;;;;;;;;;5036071;28;20076;-79
2022/03/03 02:53:38;;;;;;;45.25;28.02;;;1.60;99.90;;;;;;5035809;28;20076;-77
2022/03/03 02:56:05;;;;;;;46.30;29.10;;;1.70;99.90;;;;;;5035644;28;20471;-78
2022/03/03 02:58:31;;;;;;;46.72;28.02;;;;;;;;;;5003125;28;20049;-78
2022/03/03 03:00:58;;;;;;;42.15;29.52;;;2.00;99.90;;;;;;5036212;28;20041;-78
2022/03/03 03:03:24;;;;;;;48.00;29.75;;;;;;;;;;5054141;28;20063;-79
2022/03/03 03:05:50;;;;;;;44.13;27.95;;;;;;;;;;5054280;28;20052;-78
2022/03/03 03:08:16;;;;;;;46.67;29.67;;;;;;;;;;5053064;28;20045;-78
2022/03/03 03:10:43;;;;;;;48.17;28.85;;;1.20;99.90;;;;;;5036063;28;20075;-78
2022/03/03 03:13:14;;;;;;;43.75;28.55;;;1.40;99.90;;;;;;5035724;28;20056;-79
2022/03/03 03:15:44;;;;;;;48.78;30.27;;;1.40;99.90;;;;;;5019509;28;20037;-79
2022/03/03 03:18:17;;;;;;;44.55;28.30;;;2.20;99.90;;;;;;5053727;28;20044;-79
2022/03/03 03:20:45;;;;;;;46.88;28.77;;;0.60;99.90;;;;;;5053890;28;20045;-78
2022/03/03 03:23:12;;;;;;;45.35;28.73;;;1.30;99.90;;;;;;5035485;28;20055;-78
2022/03/03 03:25:43;;;;;;;46.85;28.25;;;1.80;99.90;;;;;;5035898;28;20516;-78
2022/03/03 03:28:14;;;;;;;46.85;28.48;;;1.00;99.90;;;;;;5035608;28;20535;-78
2022/03/03 03:30:40;;;;;;;44.15;29.60;;;1.30;99.90;;;;;;5035788;28;20111;-78
2022/03/03 03:33:06;;;;;;;49.05;29.33;;;;;;;;;;5035420;28;20053;-78
2022/03/03 03:35:32;;;;;;;50.25;28.23;;;;;;;;;;5053178;28;20037;-77
2022/03/03 03:37:58;;;;;;;48.53;29.50;;;1.10;99.90;;;;;;5035596;28;20143;-77
2022/03/03 03:40:24;;;;;;;50.70;28.95;;;1.00;99.90;;;;;;5035528;28;20059;-78
2022/03/03 03:42:51;;;;;;;48.03;28.75;;;;;;;;;;5035382;28;20551;-77
2022/03/03 03:45:17;;;;;;;49.03;29.27;;;1.10;99.90;;;;;;5035140;28;20477;-78
2022/03/03 03:47:43;;;;;;;45.60;28.50;;;;;;;;;;5035066;28;20071;-78
2022/03/03 03:50:11;;;;;;;49.95;29.02;;;1.10;99.90;;;;;;5035334;28;20049;-79
2022/03/03 03:52:38;;;;;;;44.42;28.05;;;1.00;99.90;;;;;;5035134;28;20510;-78
2022/03/03 03:55:09;;;;;;;47.22;29.05;;;1.10;99.90;;;;;;5034975;28;20045;-78
2022/03/03 03:57:36;;;;;;;48.45;28.10;;;;;;;;;;5035397;28;20144;-78
2022/03/03 04:00:05;;;;;;;48.78;28.67;;;1.80;99.90;;;;;;5035126;28;20036;-78
2022/03/03 04:02:31;;;;;;;47.88;29.25;;;;;;;;;;5019032;28;20037;-77
2022/03/03 04:04:57;;;;;;;49.75;30.20;;;;;;;;;;5035083;28;20098;-78
2022/03/03 04:07:23;;;;;;;50.55;30.42;;;;;;;;;;5035337;28;20183;-79
2022/03/03 04:09:49;;;;;;;49.60;30.02;;;1.10;99.90;;;;;;5018567;28;20048;-77
2022/03/03 04:12:14;;;;;;;51.83;28.95;;;1.20;99.90;;;;;;5034841;28;20052;-78
2022/03/03 04:14:40;;;;;;;49.28;29.25;;;;;;;;;;5035150;28;20087;-78
2022/03/03 04:17:09;;;;;;;48.90;29.77;;;;;;;;;;5034871;28;20128;-78
2022/03/03 04:19:35;;;;;;;51.00;29.75;;;1.00;99.90;;;;;;5033658;28;20057;-78
2022/03/03 04:22:01;;;;;;;46.10;28.23;;;1.30;99.90;;;;;;5052287;28;20053;-78
2022/03/03 04:24:27;;;;;;;45.50;27.58;;;;;;;;;;5034780;28;20045;-77
2022/03/03 04:26:54;;;;;;;47.88;26.88;;;;;;;;;;5034669;28;20045;-77
2022/03/03 04:29:21;;;;;;;44.33;26.52;;;;;;;;;;5034679;28;20464;-78
2022/03/03 04:31:48;;;;;;;42.83;26.67;;;1.10;99.90;;;;;;5034355;28;20040;-77
2022/03/03 04:34:15;;;;;;;44.38;26.55;;;1.00;99.90;;;;;;5034436;28;20053;-77
2022/03/03 04:36:41;;;;;;;44.17;26.67;;;;;;;;;;5034271;28;20040;-77
2022/03/03 04:39:07;;;;;;;50.25;27.05;;;;;;;;;;5034505;28;20098;-78
2022/03/03 04:41:33;;;;;;;42.80;27.00;;;;;;;;;;5034274;28;20041;-77
2022/03/03 04:43:59;;;;;;;41.35;26.08;;;;;;;;;;5034147;28;20048;-77
2022/03/03 04:46:25;;;;;;;47.80;26.52;;;;;;;;;;5034118;28;20053;-78
2022/03/03 04:48:51;;;;;;;41.45;26.60;;;1.10;99.90;;;;;;5034051;28;20040;-77
2022/03/03 04:51:16;;;;;;;43.00;26.80;;;1.00;99.90;;;;;;5034343;28;20049;-78
2022/03/03 04:53:43;;;;;;;41.42;24.98;;;;;;;;;;5052054;28;20067;-77
2022/03/03 04:56:09;;;;;;;44.88;27.10;;;1.00;99.90;;;;;;5017527;28;20075;-77
2022/03/03 04:58:34;;;;;;;42.95;26.92;;;0.90;99.90;;;;;;5051908;28;20041;-77
2022/03/03 05:01:00;;;;;;;41.25;25.25;;;0.80;99.90;;;;;;5034040;28;20385;-78
2022/03/03 05:03:26;;;;;;;44.40;26.50;;;0.80;99.90;;;;;;5034102;28;20033;-77
2022/03/03 05:05:52;;;;;;;45.30;26.35;;;1.20;99.90;;;;;;5033768;28;20091;-77
2022/03/03 05:08:17;;;;;;;39.25;25.90;;;0.60;99.90;;;;;;5033919;28;20045;-77
2022/03/03 05:10:43;;;;;;;47.38;26.85;;;;;;;;;;5034386;28;20072;-77
2022/03/03 05:13:09;;;;;;;51.28;26.38;;;;;;;;;;5033726;28;20524;-77
2022/03/03 05:15:35;;;;;;;44.03;25.85;;;;;;;;;;5033727;28;20053;-78
2022/03/03 05:18:01;;;;;;;40.80;25.35;;;;;;;;;;5033972;28;20392;-77
2022/03/03 05:20:27;;;;;;;43.58;25.48;;;;;;;;;;5051613;28;20045;-78
2022/03/03 05:22:54;;;;;;;43.42;25.95;;;;;;;;;;5051433;28;20465;-77
2022/03/03 05:25:20;;;;;;;45.25;26.30;;;;;;;;;;5033430;28;20531;-78
2022/03/03 05:27:46;;;;;;;43.58;26.55;;;;;;;;;;5051794;28;20138;-77
2022/03/03 05:30:12;;;;;;;43.78;26.55;;;0.50;99.90;;;;;;5033771;28;20127;-78
2022/03/03 05:32:38;;;;;;;46.55;26.52;;;;;;;;;;5036348;28;20436;-77
2022/03/03 05:35:04;;;;;;;45.72;27.17;;;0.60;99.90;;;;;;5037017;28;20496;-78
2022/03/03 05:37:30;;;;;;;46.55;26.58;;;0.80;99.90;;;;;;5037245;28;20476;-77
2022/03/03 05:39:56;;;;;;;41.88;26.15;;;;;;;;;;5055456;28;20052;-77
2022/03/03 05:42:24;;;;;;;42.33;25.30;;;0.50;99.90;;;;;;5037375;28;20041;-78
2022/03/03 05:44:50;;;;;;;44.38;26.85;;;0.50;99.90;;;;;;5054815;28;20049;-78
2022/03/03 05:47:16;;;;;;;44.42;26.52;;;;;;;;;;5037192;28;20701;-78
2022/03/03 05:49:48;;;;;;;43.20;26.33;;;0.50;99.90;;;;;;5054971;28;20063;-77
2022/03/03 05:52:14;;;;;;;42.63;26.95;;;;;;;;;;5037446;28;20047;-77
2022/03/03 05:54:40;;;;;;;42.05;26.50;;;0.50;99.90;;;;;;5053755;28;20084;-77
2022/03/03 05:57:17;;;;;;;46.67;26.48;;;0.20;99.90;;;;;;5054749;28;20052;-77
2022/03/03 05:59:47;;;;;;;43.28;26.02;;;0.80;99.90;;;;;;5036969;28;20040;-77
2022/03/03 06:02:13;;;;;;;47.83;27.25;;;0.50;99.90;;;;;;5053989;28;20137;-77
2022/03/03 06:04:40;;;;;;;42.90;26.33;;;;;;;;;;5036522;28;20044;-77
2022/03/03 06:07:08;;;;;;;44.13;26.65;;;0.50;99.90;;;;;;5036917;28;20041;-78
2022/03/03 06:09:35;;;;;;;43.40;26.15;;;0.40;99.90;;;;;;5036490;28;20041;-78
2022/03/03 06:12:18;;;;;;;41.90;26.73;;;0.40;99.90;;;;;;5036365;28;20381;-77
2022/03/03 06:14:59;;;;;;;45.60;27.05;;;0.50;99.90;;;;;;5036847;28;20049;-77
2022/03/03 06:17:25;;;;;;;42.80;26.13;;;0.40;99.90;;;;;;5036231;28;20045;-78
2022/03/03 06:19:52;;;;;;;46.08;26.80;;;0.20;99.90;;;;;;5032646;28;20057;-78
2022/03/03 06:22:19;;;;;;;41.30;25.83;;;-2.70;99.90;;;;;;5020091;28;20397;-78
2022/03/03 06:24:45;;;;;;;44.28;25.55;;;;;;;;;;5013719;28;20494;-78
2022/03/03 06:27:12;;;;;;;42.15;26.17;;;0.50;99.90;;;;;;5008817;28;20046;-78
2022/03/03 06:29:40;;;;;;;42.92;25.83;;;-0.40;99.90;;;;;;5005460;28;20048;-77
2022/03/03 06:32:07;;;;;;;44.15;25.63;;;0.40;99.90;;;;;;5001344;28;20061;-78
2022/03/03 06:34:33;;;;;;;45.17;26.45;;;;;;;;;;5003403;28;20038;-77
2022/03/03 06:36:59;;;;;;;42.67;24.83;;;;;;;;;;5003308;28;20398;-77
2022/03/03 06:39:26;;;;;;;41.65;25.70;;;;;;;;;;5007231;28;20037;-77
2022/03/03 06:41:52;;;;;;;44.40;25.52;;;;;;;;;;4993662;28;20047;-76
2022/03/03 06:44:19;;;;;;;42.70;25.45;;;0.50;99.90;;;;;;5000119;28;20097;-77
2022/03/03 06:46:45;;;;;;;42.38;25.65;;;;;;;;;;5010268;28;20180;-76
2022/03/03 06:49:14;;;;;;;45.35;25.00;;;0.60;99.90;;;;;;4999802;28;20042;-77
2022/03/03 06:51:47;;;;;;;38.42;24.80;;;0.60;99.90;;;;;;5005681;28;20488;-77
2022/03/03 06:54:21;;;;;;;41.00;25.45;;;0.60;99.90;;;;;;5004521;28;20073;-77
2022/03/03 06:56:51;;;;;;;42.38;25.85;;;0.50;99.90;;;;;;4992049;28;20038;-76
2022/03/03 06:59:19;;;;;;;41.30;25.70;;;1.80;99.90;;;;;;4999589;28;20034;-77
2022/03/03 07:01:49;;;;;;;38.30;23.88;;;;;;;;;;4996638;28;20559;-76
2022/03/03 07:04:16;;;;;;;45.70;25.88;;;0.90;99.90;;;;;;5006649;28;20050;-77
2022/03/03 07:06:43;;;;;;;40.83;25.15;;;0.80;99.90;;;;;;4999317;28;20053;-77
2022/03/03 07:09:10;;;;;;;40.08;25.00;;;;;;;;;;5002697;28;20577;-77
2022/03/03 07:11:41;;;;;;;44.75;24.45;;;1.00;99.90;;;;;;4994960;28;20046;-76
2022/03/03 07:14:07;;;;;;;43.97;25.00;;;;;;;;;;4968784;28;20058;-77
2022/03/03 07:16:36;;;;;;;40.17;23.67;;;;;;;;;;5001315;28;20042;-76
2022/03/03 07:19:05;;;;;;;42.85;24.17;;;1.10;99.90;;;;;;5009596;28;20056;-69
2022/03/03 07:21:59;;;;;;;40.63;24.33;;;1.00;99.90;;;;;;5012572;28;20031;-69
2022/03/03 07:24:34;;;;;;;48.80;25.23;;;1.30;99.90;;;;;;5010129;28;20046;-69
2022/03/03 07:27:04;;;;;;;42.08;24.08;;;1.20;99.90;;;;;;5002946;28;20472;-69
2022/03/03 07:29:33;;;;;;;39.63;24.55;;;1.30;99.90;;;;;;5015509;28;20042;-69
2022/03/03 07:32:04;;;;;;;45.38;24.40;;;1.40;99.90;;;;;;5014362;28;20047;-69
2022/03/03 07:34:32;;;;;;;41.17;25.60;;;1.30;99.90;;;;;;5023121;28;20080;-69
2022/03/03 07:37:07;;;;;;;43.20;25.42;;;0.50;99.90;;;;;;5001126;28;20037;-69
2022/03/03 07:39:42;;;;;;;42.37;23.87;;;1.40;99.90;;;;;;5011777;28;20559;-69
2022/03/03 07:42:18;;;;;;;41.13;23.67;;;2.70;99.90;;;;;;5002836;28;20057;-76
2022/03/03 07:44:45;;;;;;;;;;;1.70;99.90;;;;;;5009801;28;20048;-76
2022/03/03 07:47:11;;;;;;;42.10;24.38;;;;;;;;;;4998610;28;19926;-76
2022/03/03 07:49:40;;;;;;;40.05;24.02;;;1.60;99.90;;;;;;5012004;28;20050;-75
2022/03/03 07:52:07;;;;;;;37.25;24.63;;;2.10;99.90;;;;;;5010390;28;20132;-69
2022/03/03 07:54:34;;;;;;;47.30;24.42;;;;;;;;;;4993983;28;20085;-69
2022/03/03 07:57:01;;;;;;;38.50;24.02;;;1.80;99.90;;;;;;5010384;28;20053;-69
2022/03/03 07:59:35;;;;;;;40.40;24.00;;;1.90;99.90;;;;;;5011639;28;20041;-69
2022/03/03 08:02:04;;;;;;;41.63;23.48;;;2.00;99.90;;;;;;5010942;28;20677;-69
2022/03/03 08:04:32;;;;;;;39.15;23.75;;;2.00;99.90;;;;;;5016574;28;20065;-69
2022/03/03 08:07:06;;;;;;;40.13;24.33;;;2.20;99.90;;;;;;4999482;28;20042;-69
2022/03/03 08:09:34;;;;;;;42.90;24.13;;;2.00;99.90;;;;;;4990976;28;20050;-69
2022/03/03 08:12:05;;;;;;;39.15;25.30;;;2.20;99.90;;;;;;5011229;28;20045;-76
2022/03/03 08:14:32;;;;;;;41.95;24.40;;;2.40;99.90;;;;;;4969798;28;20045;-76
2022/03/03 08:16:58;;;;;;;41.88;25.33;;;;;;;;;;5014454;28;20121;-76
2022/03/03 08:19:28;;;;;;;39.33;24.80;;;2.50;99.90;;;;;;5012164;28;20373;-76
2022/03/03 08:21:54;;;;;;;36.13;24.10;;;;;;;;;;5001812;28;20421;-76
2022/03/03 08:24:21;;;;;;;37.38;25.45;;;2.70;99.90;;;;;;4997172;28;20049;-75
2022/03/03 08:26:47;;;;;;;37.22;24.75;;;;;;;;;;5013504;28;20042;-75
2022/03/03 08:29:13;;;;;;;37.15;25.42;;;;;;;;;;5018570;28;20045;-75
2022/03/03 08:31:42;;;;;;;35.78;24.73;;;4.20;99.90;;;;;;5010550;28;20039;-76
2022/03/03 08:34:31;;;;;;;40.08;25.15;;;2.80;99.90;;;;;;4994754;28;20051;-76
2022/03/03 08:37:00;;;;;;;38.35;25.30;;;3.10;99.90;;;;;;5019496;28;20072;-76
2022/03/03 08:39:28;;;;;;;36.08;24.45;;;2.90;99.90;;;;;;5019942;28;20083;-75
2022/03/03 08:42:00;;;;;;;36.13;24.75;;;3.50;99.90;;;;;;5015225;28;20029;-75
2022/03/03 08:44:38;;;;;;;39.35;25.90;;;3.20;99.90;;;;;;4992780;28;20069;-75
2022/03/03 08:50:48;;;;;;;35.00;25.00;;;3.40;99.90;;;;;;5017445;28;20423;-75
2022/03/03 08:53:17;;;;;;;37.50;25.45;;;;;;;;;;4989797;28;20611;-75
2022/03/03 08:55:43;;;;;;;32.58;24.17;;;;;;;;;;5013720;28;20046;-74
2022/03/03 08:58:10;;;;;;;35.15;23.92;;;6.40;99.90;;;;;;5004440;28;20453;-75
2022/03/03 09:00:37;;;;;;;36.67;24.88;;;6.90;92.60;;;;;;5015244;28;20493;-74
2022/03/03 09:03:04;;;;;;;35.22;23.98;;;7.50;91.20;;;;;;5016287;28;20045;-74
2022/03/03 09:05:30;;;;;;;36.45;24.58;;;;;;;;;;5009799;28;20094;-74
2022/03/03 09:07:56;;;;;;;33.97;23.70;;;7.80;98.40;;;;;;5009428;28;20056;-73
2022/03/03 09:10:22;;;;;;;39.05;23.23;;;;;;;;;;5000379;28;20042;-74
2022/03/03 09:12:48;;;;;;;30.73;22.50;;;;;;;;;;5020217;28;20567;-74
2022/03/03 09:15:14;;;;;;;35.45;22.95;;;8.00;99.90;;;;;;5013167;28;20046;-74
2022/03/03 09:17:40;;;;;;;39.95;23.00;;;6.90;99.90;;;;;;5023691;28;20044;-74
2022/03/03 09:20:11;;;;;;;31.08;21.60;;;7.10;91.90;;;;;;5020422;28;20102;-74
2022/03/03 09:22:37;;;;;;;30.58;22.00;;;6.70;93.10;;;;;;5023417;28;20034;-74
2022/03/03 09:25:04;;;;;;;31.20;22.15;;;7.30;92.30;;;;;;5025969;28;20045;-74
2022/03/03 09:27:30;;;;;;;29.50;21.25;;;;;;;;;;5025617;28;20569;-74
2022/03/03 09:29:56;;;;;;;31.73;21.35;;;;;;;;;;5013064;28;20069;-74
2022/03/03 09:32:22;;;;;;;32.60;21.42;;;;;;;;;;5028062;28;20048;-74
2022/03/03 09:34:48;;;;;;;29.23;21.35;;;;;;;;;;5030653;28;20042;-74
2022/03/03 09:37:15;;;;;;;26.80;20.55;;;7.60;99.90;;;;;;5017439;28;20048;-74
2022/03/03 09:39:41;;;;;;;31.23;21.77;;;8.30;96.60;;;;;;5019991;28;20045;-74
2022/03/03 09:42:08;;;;;;;26.95;20.98;;;7.60;99.70;;;;;;5016262;28;20116;-72
2022/03/03 09:44:34;;;;;;;29.85;21.75;;;7.40;99.90;;;;;;5031638;28;20116;-72
2022/03/03 09:47:00;;;;;;;30.35;21.77;;;;;;;;;;5024843;28;20247;-71
2022/03/03 09:49:30;;;;;;;32.28;22.05;;;;;;;;;;5016608;28;20473;-72
2022/03/03 09:51:56;;;;;;;31.20;21.58;;;;;;;;;;5027884;28;20382;-71
2022/03/03 09:54:22;;;;;;;27.90;20.95;;;;;;;;;;5008203;28;20042;-71
2022/03/03 09:56:48;;;;;;;30.17;20.65;;;;;;;;;;5013804;28;20045;-71
2022/03/03 09:59:15;;;;;;;34.88;21.48;;;7.40;93.30;;;;;;5013187;28;20041;-71
2022/03/03 10:01:41;;;;;;;31.50;21.10;;;6.10;88.80;;;;;;5020617;28;20134;-72
2022/03/03 10:04:34;;;;;;;29.50;21.45;;;7.50;99.20;;;;;;5022141;28;20045;-72
2022/03/03 10:07:04;;;;;;;29.65;20.67;;;7.80;87.20;;;;;;5015667;28;20081;-71
2022/03/03 10:09:30;;;;;;;30.10;19.80;;;8.10;97.30;;;;;;4996845;28;20092;-72
2022/03/03 10:12:06;;;;;;;29.52;20.30;;;8.00;98.50;;;;;;5021370;28;20045;-72
2022/03/03 10:14:37;;;;;;;24.98;19.50;;;7.90;97.50;;;;;;5017493;28;20088;-72
2022/03/03 10:17:04;;;;;;;31.70;19.40;;;7.90;81.80;;;;;;5022321;28;20041;-72
2022/03/03 10:19:29;;;;;;;27.42;18.25;;;8.10;90.80;;;;;;5004591;28;20121;-72
2022/03/03 10:21:56;;;;;;;28.05;18.60;;;;;;;;;;4999751;28;20078;-73
2022/03/03 10:24:24;;;;;;;24.75;18.27;;;7.90;77.50;;;;;;4996013;28;20038;-72
2022/03/03 10:27:07;;;;;;;26.75;18.20;;;7.90;94.40;;;;;;4999766;28;20038;-73
2022/03/03 10:29:35;;;;;;;24.27;18.13;;;8.10;76.50;;;;;;5006215;28;20054;-68
2022/03/03 10:32:02;;;;;;;28.20;18.77;;;8.10;76.60;;;;;;5002474;28;20139;-74
2022/03/03 10:34:30;;;;;;;26.60;17.88;;;8.30;75.30;;;;;;5006138;28;20038;-71
2022/03/03 10:37:10;;;;;;;25.58;17.90;;;8.30;93.10;;;;;;5004614;28;20045;-74
2022/03/03 10:39:48;;;;;;;29.90;17.88;;;8.30;72.80;;;;;;4998303;28;20038;-74
2022/03/03 10:42:22;;;;;;;28.65;17.63;;;6.70;71.10;;;;;;5007191;28;20060;-74
2022/03/03 10:45:08;;;;;;;23.17;17.13;;;8.40;72.30;;;;;;5014625;28;20045;-74
2022/03/03 10:47:35;;;;;;;29.98;17.17;;;8.00;85.30;;;;;;5013549;28;20037;-74
2022/03/03 10:50:02;;;;;;;23.20;16.73;;;;;;;;;;5013389;28;20053;-74
2022/03/03 10:52:31;;;;;;;24.73;16.60;;;8.50;89.50;;;;;;5013308;28;20576;-74
2022/03/03 10:55:10;;;;;;;21.45;15.60;;;9.10;68.20;;;;;;5013095;28;20053;-75
2022/03/03 10:57:57;;;;;;;23.45;15.95;;;8.70;79.00;;;;;;5013210;28;20096;-75
2022/03/03 11:00:28;;;;;;;23.50;15.77;;;8.50;64.00;;;;;;5013132;28;20060;-75
2022/03/03 11:02:59;;;;;;;23.50;16.10;;;8.50;63.90;;;;;;5003764;28;20035;-75
2022/03/03 11:05:27;;;;;;;25.63;16.33;;;8.50;64.80;;;;;;5003761;28;20049;-75
2022/03/03 11:07:58;;;;;;;33.63;16.15;;;8.80;77.10;;;;;;4984200;28;20046;-74
2022/03/03 11:10:29;;;;;;;23.10;16.10;;;9.40;65.30;;;;;;4979844;28;20038;-74
2022/03/03 11:12:56;;;;;;;24.73;16.73;;;;;;;;;;5008086;28;20104;-71
2022/03/03 11:15:26;;;;;;;24.50;17.20;;;8.90;65.60;;;;;;4995525;28;20429;-72
2022/03/03 11:17:55;;;;;;;23.40;17.13;;;8.80;68.00;;;;;;4981118;28;20389;-71
2022/03/03 11:20:21;;;;;;;24.65;15.55;;;8.80;86.20;;;;;;5007777;28;20062;-71
2022/03/03 11:22:53;;;;;;;20.67;15.77;;;9.10;65.40;;;;;;5010530;28;20042;-71
2022/03/03 11:25:32;;;;;;;20.80;15.70;;;9.10;65.40;;;;;;5010696;28;20041;-72
2022/03/03 11:28:07;;;;;;;21.80;16.33;;;9.30;87.30;;;;;;4983842;28;20042;-71
2022/03/03 11:30:36;;;;;;;22.60;15.85;;;9.20;80.00;;;;;;5010333;28;20037;-72
2022/03/03 11:33:19;;;;;;;23.60;17.20;;;9.30;79.10;;;;;;5010431;28;20037;-71
2022/03/03 11:35:50;;;;;;;22.58;16.48;;;9.30;65.00;;;;;;5010362;28;20501;-72
2022/03/03 11:38:22;;;;;;;23.13;16.88;;;9.20;78.30;;;;;;5008180;28;20046;-71
2022/03/03 11:40:54;;;;;;;23.02;16.52;;;9.30;83.80;;;;;;5010335;28;20095;-71
2022/03/03 11:43:20;;;;;;;21.98;15.65;;;9.10;82.10;;;;;;5005427;28;20034;-71
2022/03/03 11:45:56;;;;;;;19.88;15.18;;;10.00;79.10;;;;;;5010319;28;20401;-71
2022/03/03 11:48:23;;;;;;;18.80;14.40;;;;;;;;;;5010765;28;20374;-71
2022/03/03 11:50:51;;;;;;;19.90;13.88;;;9.60;82.70;;;;;;5010311;28;20083;-72
2022/03/03 11:53:24;;;;;;;19.15;14.63;;;9.90;62.20;;;;;;5010139;28;20485;-72
2022/03/03 11:56:03;;;;;;;17.85;13.90;;;9.90;61.40;;;;;;4993568;28;20037;-71
2022/03/03 11:58:38;;;;;;;21.95;14.40;;;9.90;61.90;;;;;;4993786;28;20034;-72
2022/03/03 12:01:08;;;;;;;24.17;14.27;;;9.90;72.20;;;;;;5010094;28;20052;-72
2022/03/03 12:04:02;;;;;;;20.50;14.95;;;10.10;81.80;;;;;;5009970;28;20354;-72
2022/03/03 12:06:39;;;;;;;19.40;15.48;;;10.10;80.80;;;;;;4993309;28;20096;-72
2022/03/03 12:09:18;;;;;;;18.50;14.27;;;10.40;79.80;;;;;;5009429;28;20381;-71
2022/03/03 12:11:44;;;;;;;28.58;12.70;;;10.00;73.40;;;;;;4997135;28;20050;-71
2022/03/03 12:14:32;;;;;;;18.10;12.45;;;10.30;59.10;;;;;;4993222;28;20049;-72
2022/03/03 12:17:38;;;;;;;23.92;13.10;;;10.40;58.20;;;;;;4974933;28;20101;-71
2022/03/03 12:20:40;;;;;;;21.60;12.75;;;10.10;75.60;;;;;;5021042;28;20055;-71
2022/03/03 12:23:09;;;;;;;20.08;13.02;;;10.10;65.10;;;;;;5029611;28;20076;-71
2022/03/03 12:25:50;;;;;;;20.05;12.82;;;10.20;56.70;;;;;;5033689;28;20049;-71
2022/03/03 12:28:17;;;;;;;19.40;13.07;;;;;;;;;;5016539;28;20049;-72
2022/03/03 12:30:44;;;;;;;18.08;12.45;;;10.10;56.80;;;;;;5000319;28;20436;-71
2022/03/03 12:33:22;;;;;;;19.88;12.40;;;9.90;76.10;;;;;;5013654;28;20044;-71
2022/03/03 12:35:49;;;;;;;15.23;11.75;;;10.30;57.50;;;;;;5015441;28;20076;-71
2022/03/03 12:38:19;;;;;;;22.58;10.70;;;10.40;57.20;;;;;;5032760;28;20044;-71
2022/03/03 12:40:45;;;;;;;16.80;12.45;;;10.40;60.00;;;;;;5015660;28;20423;-71
2022/03/03 12:43:13;;;;;;;16.02;12.20;;;10.50;57.70;;;;;;5023291;28;20129;-71
2022/03/03 12:45:43;;;;;;;18.33;12.02;;;10.80;67.30;;;;;;5017267;28;20045;-72
2022/03/03 12:48:09;;;;;;;23.63;11.95;;;;;;;;;;5016872;28;20052;-71
2022/03/03 12:50:35;;;;;;;16.02;11.05;;;10.40;75.60;;;;;;5016789;28;20499;-71
2022/03/03 12:53:13;;;;;;;16.77;11.70;;;10.90;58.50;;;;;;5013222;28;20199;-71
2022/03/03 12:55:47;;;;;;;18.70;12.10;;;10.00;57.60;;;;;;5019388;28;20459;-72
2022/03/03 12:58:15;;;;;;;25.75;12.02;;;11.10;58.20;;;;;;5041081;28;20056;-71
2022/03/03 13:00:43;;;;;;;16.90;11.15;;;10.90;75.20;;;;;;5006552;28;20033;-71
2022/03/03 13:03:11;;;;;;;27.88;10.48;;;10.90;74.90;;;;;;5019317;28;20049;-71
2022/03/03 13:05:58;;;;;;;14.30;10.45;;;10.90;55.70;;;;;;5031569;28;20047;-72
2022/03/03 13:08:36;;;;;;;26.92;11.43;;;10.70;75.40;;;;;;5023786;28;20423;-72
2022/03/03 13:11:09;;;;;;;16.38;11.18;;;11.10;70.90;;;;;;5018744;28;20114;-72
2022/03/03 13:13:57;;;;;;;18.65;11.95;;;11.20;62.10;;;;;;5020276;28;20125;-71